createdAt,value
2017-05-29T00:00:54.176Z,100282
2017-05-29T00:01:54.228Z,100288
2017-05-29T00:02:54.237Z,100286
2017-05-29T00:03:54.306Z,100284
2017-05-29T00:04:54.335Z,100280
2017-05-29T00:05:54.659Z,100279
2017-05-29T00:06:54.949Z,100281
2017-05-29T00:07:55.033Z,100277
2017-05-29T00:08:54.564Z,100279
2017-05-29T00:09:54.575Z,100275
2017-05-29T00:10:54.601Z,100276
2017-05-29T00:11:55.428Z,100271
2017-05-29T00:12:55.141Z,100271
2017-05-29T00:13:54.684Z,100273
2017-05-29T00:14:54.754Z,100268
2017-05-29T00:15:55.309Z,100264
2017-05-29T00:16:54.873Z,100262
2017-05-29T00:17:55.785Z,100263
2017-05-29T00:18:55.581Z,100271
2017-05-29T00:19:55.609Z,100271
2017-05-29T00:20:55.098Z,100270
2017-05-29T00:21:55.674Z,100268
2017-05-29T00:22:55.720Z,100263
2017-05-29T00:23:55.508Z,100264
2017-05-29T00:24:55.314Z,100261
2017-05-29T00:25:55.864Z,100257
2017-05-29T00:26:55.925Z,100261
2017-05-29T00:27:55.962Z,100262
2017-05-29T00:28:56.046Z,100260
2017-05-29T00:29:55.775Z,100261
2017-05-29T00:30:56.111Z,100256
2017-05-29T00:31:56.063Z,100256
2017-05-29T00:32:56.143Z,100254
2017-05-29T00:33:55.639Z,100253
2017-05-29T00:34:55.778Z,100255
2017-05-29T00:35:56.629Z,100257
2017-05-29T00:36:55.780Z,100255
2017-05-29T00:37:55.879Z,100258
2017-05-29T00:38:55.933Z,100259
2017-05-29T00:39:56.504Z,100260
2017-05-29T00:40:56.594Z,100260
2017-05-29T00:41:56.351Z,100262
2017-05-29T00:42:56.223Z,100260
2017-05-29T00:43:56.758Z,100256
2017-05-29T00:44:56.316Z,100255
2017-05-29T00:45:56.317Z,100253
2017-05-29T00:46:56.904Z,100254
2017-05-29T00:47:57.204Z,100257
2017-05-29T00:48:56.516Z,100251
2017-05-29T00:49:57.091Z,100253
2017-05-29T00:50:57.136Z,100252
2017-05-29T00:51:56.656Z,100251
2017-05-29T00:52:56.634Z,100252
2017-05-29T00:53:57.013Z,100252
2017-05-29T00:54:57.227Z,100251
2017-05-29T00:55:56.682Z,100252
2017-05-29T00:56:57.329Z,100249
2017-05-29T00:57:57.378Z,100243
2017-05-29T00:58:56.911Z,100251
2017-05-29T00:59:57.764Z,100244
2017-05-29T01:00:57.579Z,100246
2017-05-29T01:01:57.658Z,100249
2017-05-29T01:02:57.216Z,100252
2017-05-29T01:03:57.762Z,100253
2017-05-29T01:04:57.296Z,100252
2017-05-29T01:05:57.585Z,100253
2017-05-29T01:06:57.367Z,100257
2017-05-29T01:07:57.470Z,100259
2017-05-29T01:08:58.078Z,100254
2017-05-29T01:09:57.556Z,100257
2017-05-29T01:10:57.615Z,100250
2017-05-29T01:11:58.435Z,100256
2017-05-29T01:12:57.663Z,100250
2017-05-29T01:13:57.659Z,100247
2017-05-29T01:14:58.199Z,100248
2017-05-29T01:15:57.709Z,100248
2017-05-29T01:16:57.755Z,100245
2017-05-29T01:17:58.117Z,100246
2017-05-29T01:18:58.399Z,100243
2017-05-29T01:19:57.915Z,100244
2017-05-29T01:20:57.903Z,100242
2017-05-29T01:21:57.956Z,100242
2017-05-29T01:22:58.018Z,100245
2017-05-29T01:23:58.919Z,100241
2017-05-29T01:24:58.737Z,100237
2017-05-29T01:25:58.227Z,100236
2017-05-29T01:26:58.857Z,100235
2017-05-29T01:27:58.898Z,100238
2017-05-29T01:28:58.966Z,100240
2017-05-29T01:29:58.745Z,100244
2017-05-29T01:30:58.527Z,100243
2017-05-29T01:31:59.102Z,100247
2017-05-29T01:32:58.606Z,100246
2017-05-29T01:33:58.688Z,100250
2017-05-29T01:34:58.754Z,100246
2017-05-29T01:35:59.099Z,100250
2017-05-29T01:36:59.403Z,100251
2017-05-29T01:37:58.897Z,100250
2017-05-29T01:38:59.436Z,100251
2017-05-29T01:39:58.930Z,100249
2017-05-29T01:40:59.496Z,100254
2017-05-29T01:41:59.853Z,100253
2017-05-29T01:42:59.101Z,100252
2017-05-29T01:43:59.060Z,100255
2017-05-29T01:44:59.644Z,100256
2017-05-29T01:45:59.072Z,100251
2017-05-29T01:46:59.669Z,100253
2017-05-29T01:47:59.531Z,100251
2017-05-29T01:48:59.754Z,100253
2017-05-29T01:49:59.315Z,100248
2017-05-29T01:50:59.833Z,100239
2017-05-29T01:51:59.857Z,100248
2017-05-29T01:52:59.369Z,100241
2017-05-29T01:53:59.691Z,100234
2017-05-29T01:54:59.548Z,100234
2017-05-29T01:56:00.049Z,100236
2017-05-29T01:57:00.149Z,100235
2017-05-29T01:58:00.175Z,100233
2017-05-29T01:59:00.261Z,100233
2017-05-29T01:59:59.977Z,100231
2017-05-29T02:00:59.764Z,100232
2017-05-29T02:01:59.863Z,100226
2017-05-29T02:02:59.929Z,100224
2017-05-29T02:04:00.427Z,100229
2017-05-29T02:04:59.950Z,100224
2017-05-29T02:06:00.253Z,100227
2017-05-29T02:07:00.031Z,100228
2017-05-29T02:08:00.083Z,100229
2017-05-29T02:09:00.040Z,100225
2017-05-29T02:10:00.096Z,100225
2017-05-29T02:11:00.582Z,100226
2017-05-29T02:12:00.365Z,100227
2017-05-29T02:13:00.129Z,100224
2017-05-29T02:14:00.705Z,100227
2017-05-29T02:15:00.766Z,100228
2017-05-29T02:16:00.798Z,100219
2017-05-29T02:17:00.358Z,100222
2017-05-29T02:18:01.207Z,100216
2017-05-29T02:19:00.415Z,100218
2017-05-29T02:20:00.437Z,100208
2017-05-29T02:21:00.430Z,100211
2017-05-29T02:22:00.518Z,100212
2017-05-29T02:23:01.154Z,100213
2017-05-29T02:24:01.438Z,100217
2017-05-29T02:25:00.658Z,100214
2017-05-29T02:26:00.705Z,100209
2017-05-29T02:27:00.729Z,100205
2017-05-29T02:28:00.778Z,100218
2017-05-29T02:29:00.796Z,100218
2017-05-29T02:30:01.056Z,100214
2017-05-29T02:31:00.817Z,100218
2017-05-29T02:32:00.805Z,100216
2017-05-29T02:33:00.832Z,100217
2017-05-29T02:34:00.889Z,100220
2017-05-29T02:35:00.991Z,100214
2017-05-29T02:36:01.912Z,100217
2017-05-29T02:37:01.029Z,100223
2017-05-29T02:38:01.647Z,100223
2017-05-29T02:39:01.743Z,100217
2017-05-29T02:40:01.246Z,100226
2017-05-29T02:41:01.349Z,100226
2017-05-29T02:42:01.653Z,100226
2017-05-29T02:43:01.949Z,100228
2017-05-29T02:44:01.466Z,100224
2017-05-29T02:45:01.524Z,100227
2017-05-29T02:46:02.118Z,100230
2017-05-29T02:47:01.595Z,100227
2017-05-29T02:48:01.901Z,100228
2017-05-29T02:49:01.692Z,100227
2017-05-29T02:50:01.722Z,100226
2017-05-29T02:51:01.805Z,100226
2017-05-29T02:52:01.869Z,100220
2017-05-29T02:53:01.880Z,100216
2017-05-29T02:54:02.727Z,100215
2017-05-29T02:55:01.951Z,100225
2017-05-29T02:56:01.902Z,100224
2017-05-29T02:57:01.969Z,100222
2017-05-29T02:58:02.533Z,100220
2017-05-29T02:59:02.571Z,100218
2017-05-29T03:00:02.862Z,100215
2017-05-29T03:01:02.059Z,100217
2017-05-29T03:02:02.660Z,100214
2017-05-29T03:03:02.728Z,100217
2017-05-29T03:04:02.319Z,100218
2017-05-29T03:05:02.343Z,100220
2017-05-29T03:06:03.254Z,100217
2017-05-29T03:07:02.999Z,100213
2017-05-29T03:08:02.541Z,100212
2017-05-29T03:09:03.036Z,100217
2017-05-29T03:11:02.672Z,100217
2017-05-29T03:12:03.113Z,100221
2017-05-29T03:13:02.774Z,100223
2017-05-29T03:14:02.813Z,100222
2017-05-29T03:15:02.884Z,100226
2017-05-29T03:16:02.910Z,100225
2017-05-29T03:17:03.434Z,100226
2017-05-29T03:18:03.751Z,100220
2017-05-29T03:19:03.485Z,100216
2017-05-29T03:20:02.974Z,100216
2017-05-29T03:21:03.003Z,100211
2017-05-29T03:22:03.595Z,100208
2017-05-29T03:23:03.100Z,100202
2017-05-29T03:24:03.380Z,100210
2017-05-29T03:25:03.246Z,100205
2017-05-29T03:26:03.313Z,100205
2017-05-29T03:27:03.936Z,100205
2017-05-29T03:28:03.493Z,100206
2017-05-29T03:29:04.001Z,100199
2017-05-29T03:30:04.316Z,100204
2017-05-29T03:31:04.114Z,100199
2017-05-29T03:32:04.160Z,100198
2017-05-29T03:33:03.612Z,100192
2017-05-29T03:34:04.194Z,100196
2017-05-29T03:35:04.221Z,100192
2017-05-29T03:36:04.614Z,100192
2017-05-29T03:37:03.744Z,100188
2017-05-29T03:38:04.301Z,100183
2017-05-29T03:39:04.407Z,100180
2017-05-29T03:40:04.497Z,100182
2017-05-29T03:41:04.075Z,100176
2017-05-29T03:42:04.401Z,100175
2017-05-29T03:43:04.162Z,100172
2017-05-29T03:44:04.173Z,100172
2017-05-29T03:45:04.825Z,100171
2017-05-29T03:46:04.365Z,100176
2017-05-29T03:47:04.919Z,100177
2017-05-29T03:48:04.720Z,100174
2017-05-29T03:49:04.476Z,100176
2017-05-29T03:50:04.483Z,100178
2017-05-29T03:51:05.103Z,100175
2017-05-29T03:52:05.156Z,100174
2017-05-29T03:53:05.246Z,100169
2017-05-29T03:54:04.971Z,100166
2017-05-29T03:55:05.323Z,100171
2017-05-29T03:56:05.341Z,100171
2017-05-29T03:57:04.883Z,100171
2017-05-29T03:58:04.985Z,100169
2017-05-29T03:59:04.962Z,100170
2017-05-29T04:00:05.797Z,100176
2017-05-29T04:01:05.618Z,100170
2017-05-29T04:02:05.198Z,100174
2017-05-29T04:03:05.727Z,100171
2017-05-29T04:04:05.228Z,100170
2017-05-29T04:05:05.277Z,100174
2017-05-29T04:06:06.082Z,100171
2017-05-29T04:07:05.275Z,100169
2017-05-29T04:08:05.824Z,100171
2017-05-29T04:09:05.901Z,100163
2017-05-29T04:10:05.954Z,100174
2017-05-29T04:11:06.024Z,100176
2017-05-29T04:12:05.842Z,100176
2017-05-29T04:13:05.633Z,100175
2017-05-29T04:14:06.194Z,100175
2017-05-29T04:15:05.630Z,100176
2017-05-29T04:16:05.757Z,100167
2017-05-29T04:17:05.772Z,100170
2017-05-29T04:18:06.605Z,100169
2017-05-29T04:19:06.321Z,100172
2017-05-29T04:20:06.348Z,100170
2017-05-29T04:21:06.359Z,100166
2017-05-29T04:22:06.405Z,100162
2017-05-29T04:23:06.436Z,100162
2017-05-29T04:24:06.210Z,100154
2017-05-29T04:25:06.028Z,100150
2017-05-29T04:26:06.008Z,100159
2017-05-29T04:27:06.572Z,100151
2017-05-29T04:28:06.653Z,100155
2017-05-29T04:29:06.155Z,100163
2017-05-29T04:30:06.418Z,100162
2017-05-29T04:31:06.237Z,100167
2017-05-29T04:32:06.764Z,100163
2017-05-29T04:33:06.269Z,100156
2017-05-29T04:34:06.329Z,100153
2017-05-29T04:35:06.432Z,100161
2017-05-29T04:36:07.247Z,100164
2017-05-29T04:37:07.023Z,100160
2017-05-29T04:38:06.479Z,100161
2017-05-29T04:39:07.079Z,100165
2017-05-29T04:40:06.646Z,100165
2017-05-29T04:41:06.741Z,100164
2017-05-29T04:42:07.561Z,100167
2017-05-29T04:43:06.757Z,100167
2017-05-29T04:44:06.761Z,100165
2017-05-29T04:45:06.861Z,100171
2017-05-29T04:46:07.389Z,100168
2017-05-29T04:47:06.945Z,100170
2017-05-29T04:48:07.772Z,100170
2017-05-29T04:49:07.034Z,100167
2017-05-29T04:50:07.061Z,100163
2017-05-29T04:51:07.163Z,100168
2017-05-29T04:52:07.294Z,100167
2017-05-29T04:53:07.294Z,100164
2017-05-29T04:54:08.220Z,100172
2017-05-29T04:55:07.906Z,100169
2017-05-29T04:56:08.185Z,100171
2017-05-29T04:57:08.014Z,100173
2017-05-29T04:58:08.023Z,100170
2017-05-29T04:59:07.589Z,100165
2017-05-29T05:00:07.847Z,100165
2017-05-29T05:01:08.196Z,100162
2017-05-29T05:02:07.669Z,100159
2017-05-29T05:03:08.260Z,100156
2017-05-29T05:04:07.776Z,100153
2017-05-29T05:05:08.399Z,100155
2017-05-29T05:06:08.750Z,100155
2017-05-29T05:07:08.036Z,100153
2017-05-29T05:08:08.595Z,100148
2017-05-29T05:09:08.657Z,100151
2017-05-29T05:10:08.729Z,100155
2017-05-29T05:11:08.175Z,100154
2017-05-29T05:12:09.129Z,100150
2017-05-29T05:13:08.368Z,100147
2017-05-29T05:14:08.927Z,100148
2017-05-29T05:15:09.001Z,100148
2017-05-29T05:16:08.554Z,100146
2017-05-29T05:17:09.099Z,100141
2017-05-29T05:18:09.554Z,100144
2017-05-29T05:19:09.293Z,100142
2017-05-29T05:20:09.278Z,100138
2017-05-29T05:21:08.774Z,100135
2017-05-29T05:22:08.916Z,100136
2017-05-29T05:23:09.461Z,100140
2017-05-29T05:24:09.250Z,100141
2017-05-29T05:25:08.999Z,100140
2017-05-29T05:26:09.067Z,100138
2017-05-29T05:27:09.649Z,100141
2017-05-29T05:28:09.092Z,100142
2017-05-29T05:29:09.175Z,100149
2017-05-29T05:30:09.473Z,100139
2017-05-29T05:31:09.195Z,100145
2017-05-29T05:32:09.853Z,100136
2017-05-29T05:33:09.950Z,100132
2017-05-29T05:34:09.511Z,100136
2017-05-29T05:35:09.511Z,100143
2017-05-29T05:36:09.834Z,100141
2017-05-29T05:37:09.561Z,100138
2017-05-29T05:38:10.174Z,100137
2017-05-29T05:39:09.671Z,100141
2017-05-29T05:40:10.224Z,100141
2017-05-29T05:41:09.741Z,100144
2017-05-29T05:42:10.110Z,100146
2017-05-29T05:43:09.829Z,100147
2017-05-29T05:44:09.965Z,100148
2017-05-29T05:45:10.549Z,100144
2017-05-29T05:46:10.558Z,100146
2017-05-29T05:47:10.125Z,100141
2017-05-29T05:48:11.046Z,100142
2017-05-29T05:49:10.725Z,100150
2017-05-29T05:50:10.268Z,100147
2017-05-29T05:51:10.834Z,100149
2017-05-29T05:52:10.327Z,100147
2017-05-29T05:53:10.920Z,100149
2017-05-29T05:54:10.711Z,100148
2017-05-29T05:55:11.029Z,100144
2017-05-29T05:56:11.107Z,100151
2017-05-29T05:57:10.637Z,100151
2017-05-29T05:58:10.679Z,100149
2017-05-29T05:59:11.114Z,100151
2017-05-29T06:00:10.861Z,100153
2017-05-29T06:01:10.860Z,100158
2017-05-29T06:02:10.866Z,100155
2017-05-29T06:03:11.492Z,100160
2017-05-29T06:04:10.992Z,100160
2017-05-29T06:05:12.240Z,100162
2017-05-29T06:06:13.063Z,100161
2017-05-29T06:07:11.257Z,100160
2017-05-29T06:08:11.949Z,100159
2017-05-29T06:09:11.447Z,100159
2017-05-29T06:10:12.211Z,100155
2017-05-29T06:11:12.465Z,100153
2017-05-29T06:12:13.550Z,100152
2017-05-29T06:13:13.911Z,100148
2017-05-29T06:14:12.235Z,100159
2017-05-29T06:15:13.244Z,100158
2017-05-29T06:16:12.372Z,100161
2017-05-29T06:17:17.030Z,100162
2017-05-29T06:18:12.499Z,100164
2017-05-29T06:19:12.583Z,100161
2017-05-29T06:20:12.909Z,100160
2017-05-29T06:21:15.229Z,100161
2017-05-29T06:22:12.750Z,100160
2017-05-29T06:23:13.069Z,100159
2017-05-29T06:24:14.521Z,100155
2017-05-29T06:25:13.001Z,100157
2017-05-29T06:26:13.831Z,100157
2017-05-29T06:27:13.595Z,100158
2017-05-29T06:28:13.143Z,100161
2017-05-29T06:29:13.592Z,100163
2017-05-29T06:30:12.559Z,100155
2017-05-29T06:31:13.039Z,100161
2017-05-29T06:32:13.039Z,100163
2017-05-29T06:33:12.631Z,100161
2017-05-29T06:34:13.318Z,100161
2017-05-29T06:35:13.578Z,100160
2017-05-29T06:36:12.799Z,100163
2017-05-29T06:37:13.365Z,100161
2017-05-29T06:38:12.806Z,100160
2017-05-29T06:39:14.071Z,100149
2017-05-29T06:40:12.896Z,100156
2017-05-29T06:41:13.719Z,100149
2017-05-29T06:42:12.982Z,100151
2017-05-29T06:43:12.971Z,100153
2017-05-29T06:44:13.524Z,100151
2017-05-29T06:45:13.605Z,100147
2017-05-29T06:46:13.657Z,100144
2017-05-29T06:47:14.199Z,100147
2017-05-29T06:48:13.859Z,100147
2017-05-29T06:49:13.354Z,100139
2017-05-29T06:50:13.936Z,100145
2017-05-29T06:51:13.952Z,100143
2017-05-29T06:52:13.402Z,100142
2017-05-29T06:53:14.266Z,100142
2017-05-29T06:54:13.482Z,100135
2017-05-29T06:55:14.117Z,100141
2017-05-29T06:56:14.209Z,100133
2017-05-29T06:57:14.207Z,100135
2017-05-29T06:58:14.242Z,100138
2017-05-29T06:59:15.217Z,100138
2017-05-29T07:00:13.793Z,100138
2017-05-29T07:01:13.829Z,100138
2017-05-29T07:02:13.872Z,100143
2017-05-29T07:03:14.695Z,100144
2017-05-29T07:04:14.016Z,100143
2017-05-29T07:12:14.846Z,100139
2017-05-29T07:13:15.043Z,100144
2017-05-29T07:14:15.086Z,100146
2017-05-29T07:15:14.573Z,100148
2017-05-29T07:16:15.167Z,100137
2017-05-29T07:17:15.224Z,100143
2017-05-29T07:18:15.495Z,100144
2017-05-29T07:19:15.979Z,100144
2017-05-29T07:20:14.784Z,100142
2017-05-29T07:21:15.327Z,100143
2017-05-29T07:22:15.371Z,100143
2017-05-29T07:23:16.419Z,100140
2017-05-29T07:24:15.819Z,100137
2017-05-29T07:25:15.013Z,100137
2017-05-29T07:26:15.016Z,100131
2017-05-29T07:27:15.101Z,100134
2017-05-29T07:28:15.679Z,100131
2017-05-29T07:29:15.714Z,100134
2017-05-29T07:30:15.421Z,100130
2017-05-29T07:31:16.256Z,100130
2017-05-29T07:32:15.214Z,100131
2017-05-29T07:33:15.374Z,100128
2017-05-29T07:34:16.505Z,100121
2017-05-29T07:35:15.922Z,100122
2017-05-29T07:36:17.512Z,100123
2017-05-29T07:37:15.434Z,100125
2017-05-29T07:38:16.155Z,100123
2017-05-29T07:39:15.632Z,100124
2017-05-29T07:40:16.191Z,100121
2017-05-29T07:41:16.336Z,100124
2017-05-29T07:42:16.674Z,100118
2017-05-29T07:43:16.429Z,100121
2017-05-29T07:44:15.923Z,100119
2017-05-29T07:45:17.065Z,100122
2017-05-29T07:46:16.500Z,100121
2017-05-29T07:47:16.742Z,100118
2017-05-29T07:48:16.375Z,100115
2017-05-29T07:49:16.682Z,100114
2017-05-29T07:50:17.408Z,100119
2017-05-29T07:51:16.836Z,100118
2017-05-29T07:52:16.898Z,100119
2017-05-29T07:53:17.601Z,100118
2017-05-29T07:54:17.637Z,100112
2017-05-29T07:55:17.144Z,100108
2017-05-29T07:56:16.703Z,100109
2017-05-29T07:57:16.699Z,100111
2017-05-29T07:58:16.746Z,100107
2017-05-29T07:59:17.879Z,100108
2017-05-29T08:00:17.103Z,100100
2017-05-29T08:01:22.734Z,100108
2017-05-29T08:02:17.353Z,100104
2017-05-29T08:03:17.484Z,100105
2017-05-29T08:04:17.519Z,100102
2017-05-29T08:05:17.555Z,100096
2017-05-29T08:06:17.840Z,100105
2017-05-29T08:07:17.604Z,100102
2017-05-29T08:08:17.674Z,100101
2017-05-29T08:09:17.783Z,100101
2017-05-29T08:10:17.777Z,100100
2017-05-29T08:11:17.914Z,100101
2017-05-29T08:12:17.611Z,100100
2017-05-29T08:13:17.942Z,100102
2017-05-29T08:14:18.181Z,100093
2017-05-29T08:15:18.760Z,100097
2017-05-29T08:16:18.096Z,100093
2017-05-29T08:17:17.541Z,100097
2017-05-29T08:18:18.637Z,100089
2017-05-29T08:19:17.665Z,100092
2017-05-29T08:20:19.498Z,100092
2017-05-29T08:21:18.527Z,100089
2017-05-29T08:22:18.361Z,100087
2017-05-29T08:23:17.853Z,100089
2017-05-29T08:24:18.715Z,100087
2017-05-29T08:25:18.594Z,100087
2017-05-29T08:26:18.588Z,100088
2017-05-29T08:27:18.561Z,100084
2017-05-29T08:28:18.163Z,100088
2017-05-29T08:29:18.200Z,100090
2017-05-29T08:30:19.010Z,100086
2017-05-29T08:31:18.782Z,100091
2017-05-29T08:32:19.429Z,100088
2017-05-29T08:33:19.584Z,100087
2017-05-29T08:34:19.129Z,100091
2017-05-29T08:35:19.754Z,100091
2017-05-29T08:36:18.863Z,100084
2017-05-29T08:37:20.915Z,100094
2017-05-29T08:38:19.881Z,100089
2017-05-29T08:39:19.455Z,100083
2017-05-29T08:40:18.788Z,100089
2017-05-29T08:41:20.642Z,100089
2017-05-29T08:42:19.733Z,100085
2017-05-29T08:43:18.830Z,100083
2017-05-29T08:44:21.395Z,100084
2017-05-29T08:45:20.238Z,100085
2017-05-29T08:46:19.535Z,100088
2017-05-29T08:47:19.452Z,100084
2017-05-29T08:48:20.572Z,100083
2017-05-29T08:49:21.071Z,100082
2017-05-29T08:50:19.703Z,100081
2017-05-29T08:51:21.989Z,100083
2017-05-29T08:52:20.314Z,100078
2017-05-29T08:53:20.455Z,100067
2017-05-29T08:54:19.817Z,100076
2017-05-29T08:55:21.913Z,100076
2017-05-29T08:56:22.417Z,100073
2017-05-29T08:57:20.561Z,100079
2017-05-29T08:58:20.473Z,100070
2017-05-29T08:59:19.437Z,100064
2017-05-29T09:00:19.778Z,100066
2017-05-29T09:01:20.268Z,100063
2017-05-29T09:02:20.803Z,100055
2017-05-29T09:03:19.594Z,100059
2017-05-29T09:04:20.932Z,100061
2017-05-29T09:05:20.860Z,100062
2017-05-29T09:06:21.194Z,100064
2017-05-29T09:07:19.975Z,100062
2017-05-29T09:08:21.118Z,100055
2017-05-29T09:09:21.045Z,100062
2017-05-29T09:10:20.635Z,100054
2017-05-29T09:11:22.194Z,100061
2017-05-29T09:12:22.655Z,100059
2017-05-29T09:13:20.112Z,100059
2017-05-29T09:14:21.328Z,100050
2017-05-29T09:15:22.077Z,100051
2017-05-29T09:16:20.265Z,100051
2017-05-29T09:17:20.367Z,100047
2017-05-29T09:18:21.275Z,100043
2017-05-29T09:19:21.073Z,100039
2017-05-29T09:20:21.049Z,100048
2017-05-29T09:21:20.574Z,100046
2017-05-29T09:22:20.516Z,100036
2017-05-29T09:23:20.582Z,100045
2017-05-29T09:24:22.191Z,100041
2017-05-29T09:25:20.718Z,100042
2017-05-29T09:26:20.793Z,100043
2017-05-29T09:27:20.812Z,100042
2017-05-29T09:28:21.420Z,100041
2017-05-29T09:29:20.945Z,100036
2017-05-29T09:30:21.821Z,100040
2017-05-29T09:31:21.076Z,100038
2017-05-29T09:32:21.078Z,100038
2017-05-29T09:33:21.688Z,100032
2017-05-29T09:34:21.669Z,100029
2017-05-29T09:35:21.837Z,100033
2017-05-29T09:36:21.391Z,100032
2017-05-29T09:37:21.809Z,100029
2017-05-29T09:38:21.836Z,100027
2017-05-29T09:39:21.881Z,100026
2017-05-29T09:40:21.349Z,100026
2017-05-29T09:41:22.570Z,100021
2017-05-29T09:42:21.761Z,100026
2017-05-29T09:43:22.753Z,100028
2017-05-29T09:44:26.009Z,100024
2017-05-29T09:45:23.067Z,100021
2017-05-29T09:46:22.736Z,100020
2017-05-29T09:47:22.237Z,100020
2017-05-29T09:48:22.086Z,100019
2017-05-29T09:49:22.344Z,100013
2017-05-29T09:50:22.445Z,100015
2017-05-29T09:51:23.014Z,100017
2017-05-29T09:52:21.968Z,100011
2017-05-29T09:53:22.609Z,100016
2017-05-29T09:54:23.481Z,100009
2017-05-29T09:55:22.647Z,100001
2017-05-29T09:56:24.077Z,100010
2017-05-29T09:57:22.760Z,100002
2017-05-29T09:58:22.755Z,100010
2017-05-29T09:59:22.851Z,100012
2017-05-29T10:01:22.496Z,100011
2017-05-29T10:02:22.608Z,100010
2017-05-29T10:03:23.778Z,100003
2017-05-29T10:04:23.181Z,99999
2017-05-29T10:05:22.705Z,100002
2017-05-29T10:06:24.537Z,99997
2017-05-29T10:07:23.309Z,100000
2017-05-29T10:08:23.475Z,99995
2017-05-29T10:09:24.786Z,99990
2017-05-29T10:10:24.118Z,99990
2017-05-29T10:11:23.534Z,99987
2017-05-29T10:12:23.975Z,99986
2017-05-29T10:13:24.042Z,99986
2017-05-29T10:14:23.767Z,99984
2017-05-29T10:15:26.814Z,99982
2017-05-29T10:16:24.541Z,99987
2017-05-29T10:17:23.855Z,99987
2017-05-29T10:18:23.693Z,99987
2017-05-29T10:19:23.487Z,99985
2017-05-29T10:20:24.068Z,99985
2017-05-29T10:21:23.548Z,99985
2017-05-29T10:22:23.568Z,99984
2017-05-29T10:23:24.194Z,99981
2017-05-29T10:24:25.208Z,99980
2017-05-29T10:25:24.239Z,99978
2017-05-29T10:26:24.366Z,99976
2017-05-29T10:27:23.938Z,99973
2017-05-29T10:28:25.627Z,99977
2017-05-29T10:29:24.551Z,99973
2017-05-29T10:30:24.871Z,99972
2017-05-29T10:31:25.122Z,99972
2017-05-29T10:32:26.274Z,99968
2017-05-29T10:33:24.724Z,99971
2017-05-29T10:34:25.224Z,99968
2017-05-29T10:35:25.471Z,99971
2017-05-29T10:36:25.089Z,99970
2017-05-29T10:37:26.165Z,99968
2017-05-29T10:38:25.474Z,99956
2017-05-29T10:39:25.604Z,99960
2017-05-29T10:40:25.540Z,99962
2017-05-29T10:41:24.990Z,99956
2017-05-29T10:42:28.591Z,99955
2017-05-29T10:43:24.564Z,99957
2017-05-29T10:44:24.649Z,99956
2017-05-29T10:45:26.100Z,99956
2017-05-29T10:46:25.206Z,99958
2017-05-29T10:47:25.405Z,99947
2017-05-29T10:48:26.945Z,99948
2017-05-29T10:49:24.827Z,99950
2017-05-29T10:50:25.463Z,99947
2017-05-29T10:51:24.914Z,99949
2017-05-29T10:52:24.945Z,99948
2017-05-29T10:53:25.016Z,99949
2017-05-29T10:54:26.766Z,99943
2017-05-29T10:55:25.915Z,99940
2017-05-29T10:56:25.142Z,99944
2017-05-29T10:57:25.800Z,99947
2017-05-29T10:58:25.762Z,99947
2017-05-29T10:59:25.247Z,99944
2017-05-29T11:00:27.270Z,99939
2017-05-29T11:01:25.994Z,99939
2017-05-29T11:02:25.367Z,99942
2017-05-29T11:03:25.933Z,99939
2017-05-29T11:04:26.043Z,99931
2017-05-29T11:05:27.336Z,99936
2017-05-29T11:06:28.386Z,99933
2017-05-29T11:07:26.211Z,99934
2017-05-29T11:08:27.014Z,99935
2017-05-29T11:09:26.310Z,99936
2017-05-29T11:10:26.367Z,99934
2017-05-29T11:11:25.888Z,99937
2017-05-29T11:12:26.203Z,99935
2017-05-29T11:13:25.956Z,99931
2017-05-29T11:14:27.164Z,99931
2017-05-29T11:15:27.057Z,99930
2017-05-29T11:16:26.654Z,99928
2017-05-29T11:17:26.916Z,99936
2017-05-29T11:18:26.526Z,99934
2017-05-29T11:19:26.292Z,99934
2017-05-29T11:20:26.320Z,99937
2017-05-29T11:21:26.918Z,99936
2017-05-29T11:22:26.395Z,99941
2017-05-29T11:23:27.001Z,99932
2017-05-29T11:24:26.726Z,99935
2017-05-29T11:25:27.001Z,99934
2017-05-29T11:26:27.053Z,99937
2017-05-29T11:27:26.557Z,99932
2017-05-29T11:28:27.233Z,99934
2017-05-29T11:29:27.794Z,99936
2017-05-29T11:30:27.010Z,99928
2017-05-29T11:31:27.374Z,99928
2017-05-29T11:32:26.841Z,99929
2017-05-29T11:33:27.500Z,99927
2017-05-29T11:34:28.951Z,99927
2017-05-29T11:35:27.619Z,99926
2017-05-29T11:36:28.085Z,99925
2017-05-29T11:37:28.423Z,99925
2017-05-29T11:38:28.540Z,99922
2017-05-29T11:39:27.389Z,99918
2017-05-29T11:40:27.967Z,99915
2017-05-29T11:41:27.478Z,99907
2017-05-29T11:42:27.776Z,99914
2017-05-29T11:43:28.044Z,99916
2017-05-29T11:44:28.195Z,99917
2017-05-29T11:45:29.583Z,99923
2017-05-29T11:46:30.507Z,99916
2017-05-29T11:47:28.753Z,99923
2017-05-29T11:48:29.081Z,99918
2017-05-29T11:49:28.486Z,99918
2017-05-29T11:50:28.541Z,99918
2017-05-29T11:51:28.560Z,99916
2017-05-29T11:52:29.292Z,99922
2017-05-29T11:53:28.880Z,99911
2017-05-29T11:54:28.617Z,99919
2017-05-29T11:55:28.797Z,99914
2017-05-29T11:56:28.710Z,99919
2017-05-29T11:57:28.792Z,99913
2017-05-29T11:58:28.304Z,99916
2017-05-29T11:59:29.282Z,99920
2017-05-29T12:00:28.383Z,99915
2017-05-29T12:01:29.532Z,99912
2017-05-29T12:02:29.078Z,99910
2017-05-29T12:03:29.094Z,99907
2017-05-29T12:04:29.107Z,99909
2017-05-29T12:05:29.988Z,99912
2017-05-29T12:06:29.238Z,99925
2017-05-29T12:07:29.914Z,99912
2017-05-29T12:08:29.963Z,99905
2017-05-29T12:09:28.913Z,99907
2017-05-29T12:10:29.356Z,99904
2017-05-29T12:11:30.997Z,99906
2017-05-29T12:12:29.416Z,99903
2017-05-29T12:13:28.858Z,99890
2017-05-29T12:14:28.979Z,99888
2017-05-29T12:15:29.581Z,99900
2017-05-29T12:16:30.152Z,99893
2017-05-29T12:17:29.374Z,99899
2017-05-29T12:18:29.673Z,99897
2017-05-29T12:19:30.003Z,99896
2017-05-29T12:20:29.243Z,99896
2017-05-29T12:21:29.265Z,99897
2017-05-29T12:22:29.885Z,99898
2017-05-29T12:23:30.171Z,99900
2017-05-29T12:24:29.920Z,99900
2017-05-29T12:25:30.653Z,99895
2017-05-29T12:26:30.225Z,99893
2017-05-29T12:27:29.411Z,99890
2017-05-29T12:28:30.790Z,99893
2017-05-29T12:29:30.282Z,99896
2017-05-29T12:30:30.125Z,99894
2017-05-29T12:31:30.119Z,99894
2017-05-29T12:32:30.306Z,99894
2017-05-29T12:33:30.207Z,99890
2017-05-29T12:34:30.371Z,99890
2017-05-29T12:35:30.606Z,99891
2017-05-29T12:36:30.397Z,99891
2017-05-29T12:37:30.592Z,99890
2017-05-29T12:38:30.597Z,99886
2017-05-29T12:39:30.606Z,99885
2017-05-29T12:40:30.801Z,99888
2017-05-29T12:41:31.158Z,99879
2017-05-29T12:42:30.739Z,99880
2017-05-29T12:43:30.335Z,99878